createdAt,value
2023-03-29T00:02:59.523Z,55.00
2023-03-29T00:08:04.584Z,55.43
2023-03-29T00:13:07.797Z,55.77
2023-03-29T00:18:10.702Z,57.39
2023-03-29T00:23:13.604Z,65.47
2023-03-29T00:28:16.612Z,63.22
2023-03-29T00:33:20.928Z,51.28
2023-03-29T00:38:23.855Z,44.06
2023-03-29T00:43:27.274Z,47.17
2023-03-29T00:48:31.457Z,51.23
2023-03-29T00:53:38.609Z,53.82
2023-03-29T00:58:52.168Z,54.47
2023-03-29T01:04:20.980Z,55.97
2023-03-29T01:09:27.268Z,56.25
2023-03-29T01:14:46.245Z,56.76
2023-03-29T01:19:58.352Z,57.66
2023-03-29T01:25:26.880Z,68.79
2023-03-29T01:30:36.461Z,63.60
2023-03-29T01:36:00.060Z,55.72
2023-03-29T01:41:05.449Z,46.17
2023-03-29T01:46:32.003Z,45.45
2023-03-29T01:51:49.485Z,51.44
2023-03-29T01:56:53.908Z,54.90
2023-03-29T02:02:05.029Z,56.09
2023-03-29T02:07:10.746Z,56.95
2023-03-29T02:12:15.842Z,57.42
2023-03-29T02:17:26.263Z,57.44
2023-03-29T02:22:38.755Z,65.73
2023-03-29T02:27:42.433Z,63.49
2023-03-29T02:33:17.636Z,52.07
2023-03-29T02:38:21.869Z,46.01
2023-03-29T02:43:27.594Z,48.33
2023-03-29T02:48:33.980Z,53.08
2023-03-29T02:53:45.044Z,56.97
2023-03-29T02:58:48.030Z,59.53
2023-03-29T03:03:52.228Z,59.32
2023-03-29T03:08:55.579Z,67.00
2023-03-29T03:13:58.586Z,69.05
2023-03-29T03:19:02.214Z,62.01
2023-03-29T03:24:07.683Z,53.95
2023-03-29T03:29:11.505Z,56.70
2023-03-29T03:34:14.516Z,58.95
2023-03-29T03:39:17.504Z,59.59
2023-03-29T03:44:20.723Z,60.38
2023-03-29T03:49:24.538Z,62.97
2023-03-29T03:54:27.616Z,71.70
2023-03-29T03:59:30.964Z,66.23
2023-03-29T04:04:34.438Z,59.54
2023-03-29T04:09:37.895Z,53.95
2023-03-29T04:14:40.903Z,57.55
2023-03-29T04:19:43.826Z,60.75
2023-03-29T04:24:46.913Z,60.05
2023-03-29T04:29:49.823Z,61.90
2023-03-29T04:34:52.826Z,71.33
2023-03-29T04:39:55.941Z,69.50
2023-03-29T04:45:00.644Z,55.36
2023-03-29T04:50:04.062Z,52.53
2023-03-29T04:55:08.260Z,54.38
2023-03-29T05:00:15.490Z,54.74
2023-03-29T05:05:18.570Z,56.10
2023-03-29T05:10:22.026Z,53.95
2023-03-29T05:15:24.920Z,53.44
2023-03-29T05:20:28.791Z,51.72
2023-03-29T05:25:32.012Z,49.45
2023-03-29T05:30:35.326Z,47.84
2023-03-29T05:35:38.362Z,46.09
2023-03-29T05:40:41.706Z,40.76
2023-03-29T05:45:44.855Z,41.77
2023-03-29T05:50:52.431Z,40.40
2023-03-29T05:55:57.010Z,38.20
2023-03-29T06:01:00.778Z,37.13
2023-03-29T06:06:04.544Z,37.07
2023-03-29T06:11:11.164Z,35.75
2023-03-29T06:16:15.176Z,34.84
2023-03-29T06:21:18.388Z,33.42
2023-03-29T06:26:21.396Z,33.42
2023-03-29T06:31:24.861Z,31.00
2023-03-29T06:36:27.826Z,31.17
2023-03-29T06:41:31.756Z,31.40
2023-03-29T06:46:35.244Z,30.35
2023-03-29T06:51:38.504Z,29.05
2023-03-29T06:56:41.630Z,29.86
2023-03-29T07:01:45.285Z,29.21
2023-03-29T07:06:51.365Z,28.90
2023-03-29T07:11:54.594Z,28.41
2023-03-29T07:17:01.601Z,28.34
2023-03-29T07:22:04.626Z,27.54
2023-03-29T07:27:08.947Z,27.84
2023-03-29T07:32:12.387Z,26.90
2023-03-29T07:37:15.573Z,27.73
2023-03-29T07:42:18.792Z,27.40
2023-03-29T07:47:23.710Z,27.20
2023-03-29T07:52:28.793Z,26.33
2023-03-29T07:57:32.081Z,26.77
2023-03-29T08:02:35.188Z,26.64
2023-03-29T08:07:40.214Z,26.38
2023-03-29T08:12:44.368Z,26.52
2023-03-29T08:17:47.414Z,26.35
2023-03-29T08:22:50.500Z,26.36
2023-03-29T08:27:53.769Z,26.12
2023-03-29T08:32:57.175Z,26.06
2023-03-29T08:38:00.267Z,26.06
2023-03-29T08:43:37.978Z,26.35
2023-03-29T08:48:54.307Z,29.78
2023-03-29T08:54:05.500Z,33.25
2023-03-29T08:59:23.048Z,34.82
2023-03-29T09:04:33.735Z,35.60
2023-03-29T09:09:37.875Z,36.21
2023-03-29T09:15:10.969Z,37.17
2023-03-29T09:20:59.607Z,37.51
2023-03-29T09:26:13.094Z,38.83
2023-03-29T09:31:23.126Z,38.98
2023-03-29T09:36:36.588Z,38.80
2023-03-29T09:41:46.854Z,38.80
2023-03-29T09:46:59.303Z,39.50
2023-03-29T09:52:09.039Z,39.36
2023-03-29T09:57:15.839Z,39.54
2023-03-29T10:02:21.372Z,39.85
2023-03-29T10:07:34.589Z,40.14
2023-03-29T10:12:37.917Z,40.27
2023-03-29T10:17:41.237Z,39.71
2023-03-29T10:22:56.822Z,39.56
2023-03-29T10:28:05.562Z,38.28
2023-03-29T10:33:19.214Z,37.46
2023-03-29T10:38:28.075Z,36.83
2023-03-29T10:43:39.788Z,36.26
2023-03-29T10:48:48.063Z,36.60
2023-03-29T10:53:51.312Z,36.37
2023-03-29T10:59:14.592Z,36.00
2023-03-29T11:04:28.559Z,37.04
2023-03-29T11:09:57.776Z,37.34
2023-03-29T11:15:08.054Z,37.42
2023-03-29T11:20:27.360Z,36.25
2023-03-29T11:25:47.519Z,35.76
2023-03-29T11:31:04.876Z,35.74
2023-03-29T11:36:25.319Z,36.28
2023-03-29T11:41:33.980Z,36.52
2023-03-29T11:46:43.139Z,36.60
2023-03-29T11:51:54.499Z,35.75
2023-03-29T11:57:05.975Z,35.31
2023-03-29T12:02:40.006Z,35.68
2023-03-29T12:07:51.200Z,35.86
2023-03-29T12:13:21.531Z,35.92
2023-03-29T12:18:30.840Z,35.68
2023-03-29T12:23:34.253Z,36.22
2023-03-29T12:28:37.366Z,36.04
2023-03-29T12:34:02.083Z,35.91
2023-03-29T12:39:05.619Z,35.78
2023-03-29T12:44:15.473Z,36.00
2023-03-29T12:49:25.705Z,36.00
2023-03-29T12:54:32.502Z,35.59
2023-03-29T12:59:39.854Z,35.50
2023-03-29T13:04:42.865Z,35.41
2023-03-29T13:09:53.559Z,34.96
2023-03-29T13:15:00.723Z,35.20
2023-03-29T13:20:22.089Z,35.17
2023-03-29T13:25:37.280Z,35.34
2023-03-29T13:30:57.818Z,35.37
2023-03-29T13:36:10.377Z,35.48
2023-03-29T13:41:39.338Z,35.90
2023-03-29T13:46:44.377Z,36.36
2023-03-29T13:51:53.643Z,36.27
2023-03-29T13:57:05.358Z,35.96
2023-03-29T14:02:21.433Z,36.60
2023-03-29T14:07:26.597Z,36.85
2023-03-29T14:12:36.674Z,36.71
2023-03-29T14:17:41.168Z,36.97
2023-03-29T14:22:44.559Z,37.61
2023-03-29T14:27:47.650Z,37.97
2023-03-29T14:32:51.730Z,38.58
2023-03-29T14:37:55.346Z,38.85
2023-03-29T14:43:02.507Z,38.96
2023-03-29T14:48:06.665Z,39.29
2023-03-29T14:53:18.249Z,39.29
2023-03-29T14:58:24.140Z,39.50
2023-03-29T15:03:27.796Z,39.74
2023-03-29T15:08:34.325Z,39.86
2023-03-29T15:13:42.168Z,39.33
2023-03-29T15:18:47.730Z,39.95
2023-03-29T15:23:55.800Z,40.32
2023-03-29T15:29:23.774Z,40.95
2023-03-29T15:34:29.564Z,41.72
2023-03-29T15:39:32.831Z,42.49
2023-03-29T15:44:38.794Z,42.98
2023-03-29T15:49:42.121Z,43.64
2023-03-29T15:54:45.236Z,44.08
2023-03-29T15:59:48.542Z,44.49
2023-03-29T16:04:52.167Z,44.95
2023-03-29T16:09:55.173Z,45.31
2023-03-29T16:14:58.190Z,45.57
2023-03-29T16:20:01.521Z,45.84
2023-03-29T16:25:11.859Z,46.23
2023-03-29T16:30:15.449Z,47.23
2023-03-29T16:35:27.199Z,47.62
2023-03-29T16:40:30.414Z,48.08
2023-03-29T16:45:33.414Z,48.58
2023-03-29T16:50:36.951Z,48.55
2023-03-29T16:55:40.550Z,49.24
2023-03-29T17:00:46.354Z,49.27
2023-03-29T17:05:53.134Z,49.53
2023-03-29T17:10:56.744Z,49.95
2023-03-29T17:15:59.892Z,50.19
2023-03-29T17:21:03.274Z,50.58
2023-03-29T17:26:07.281Z,50.99
2023-03-29T17:31:10.224Z,51.48
2023-03-29T17:36:13.542Z,52.02
2023-03-29T17:41:17.628Z,52.23
2023-03-29T17:46:23.034Z,52.80
2023-03-29T17:51:27.766Z,52.79
2023-03-29T17:56:31.276Z,53.00
2023-03-29T18:01:35.838Z,53.51
2023-03-29T18:06:40.056Z,53.94
2023-03-29T18:11:43.162Z,54.48
2023-03-29T18:16:47.015Z,55.08
2023-03-29T18:21:50.057Z,55.29
2023-03-29T18:26:53.552Z,55.60
2023-03-29T18:31:56.634Z,55.55
2023-03-29T18:36:59.944Z,55.92
2023-03-29T18:42:03.159Z,56.37
2023-03-29T18:47:07.338Z,56.41
2023-03-29T18:52:10.400Z,56.73
2023-03-29T18:57:13.676Z,56.73
2023-03-29T19:02:16.950Z,56.99
2023-03-29T19:07:22.186Z,57.38
2023-03-29T19:12:25.503Z,57.74
2023-03-29T19:17:28.713Z,57.89
2023-03-29T19:22:34.172Z,57.89
2023-03-29T19:27:37.276Z,57.73
2023-03-29T19:32:40.824Z,57.69
2023-03-29T19:37:44.098Z,57.68
2023-03-29T19:42:48.144Z,57.69
2023-03-29T19:48:02.628Z,57.74
2023-03-29T19:53:06.642Z,57.94
2023-03-29T19:58:09.745Z,58.16
2023-03-29T20:03:14.103Z,58.49
2023-03-29T20:08:17.400Z,58.67
2023-03-29T20:13:31.309Z,58.82
2023-03-29T20:18:38.589Z,59.16
2023-03-29T20:23:42.082Z,59.60
2023-03-29T20:28:45.908Z,59.40
2023-03-29T20:33:49.025Z,59.41
2023-03-29T20:38:52.623Z,59.42
2023-03-29T20:44:00.102Z,59.78
2023-03-29T20:49:08.996Z,59.98
2023-03-29T20:54:12.009Z,59.88
2023-03-29T20:59:15.418Z,60.06
2023-03-29T21:04:18.905Z,60.16
2023-03-29T21:09:23.611Z,60.41
2023-03-29T21:14:26.788Z,60.62
2023-03-29T21:19:30.006Z,60.88
2023-03-29T21:24:34.071Z,61.09
2023-03-29T21:29:37.199Z,60.95
2023-03-29T21:34:40.254Z,60.96
2023-03-29T21:39:43.468Z,60.95
2023-03-29T21:44:46.479Z,60.87
2023-03-29T21:49:49.610Z,60.90
2023-03-29T21:54:52.691Z,61.22
2023-03-29T21:59:57.032Z,61.19
2023-03-29T22:05:00.147Z,60.93
2023-03-29T22:10:05.802Z,60.88
2023-03-29T22:15:13.501Z,60.71
2023-03-29T22:20:18.590Z,60.35
2023-03-29T22:25:22.990Z,60.03
2023-03-29T22:30:25.919Z,59.78
2023-03-29T22:35:28.934Z,59.62
2023-03-29T22:40:33.469Z,59.38
2023-03-29T22:45:36.510Z,59.06
2023-03-29T22:50:43.023Z,58.94
2023-03-29T22:55:46.488Z,58.89
2023-03-29T23:00:50.487Z,58.88
2023-03-29T23:05:55.940Z,58.85
2023-03-29T23:10:59.684Z,58.87
2023-03-29T23:16:03.908Z,58.89
2023-03-29T23:21:09.089Z,58.92
2023-03-29T23:26:12.177Z,59.07
2023-03-29T23:31:19.800Z,59.15
2023-03-29T23:36:23.124Z,59.24
2023-03-29T23:41:28.409Z,59.35
2023-03-29T23:46:32.655Z,59.68
2023-03-29T23:51:36.952Z,59.86
2023-03-29T23:56:40.007Z,60.14
